Time;durP1;ratioP1;P1;durP2;ratioP2;P2;SDS_P1;SDS_P2;PMS_P1;PMS_P2;Temp;Humidity;BMP_temperature;BMP_pressure;BME280_temperature;BME280_humidity;BME280_pressure;Samples;Min_cycle;Max_cycle;Signal;HPM_P1;HPM_P2
2022/11/13 00:00:18;;;;;;;13.57;8.98;;;;;;;11.00;69.71;102599.44;5134502;27;20392;-61
2022/11/13 00:02:44;;;;;;;15.35;9.93;;;;;;;10.93;69.82;102593.03;5135581;27;20015;-61
2022/11/13 00:05:09;;;;;;;16.88;9.90;;;;;;;10.91;70.28;102592.06;5135652;27;20059;-61
2022/11/13 00:07:34;;;;;;;11.15;8.57;;;;;;;10.91;70.04;102588.50;5135633;27;20023;-61
2022/11/13 00:10:00;;;;;;;13.57;8.98;;;;;;;10.87;70.45;102590.13;5134303;27;20024;-62
2022/11/13 00:12:27;;;;;;;15.55;9.25;;;;;;;10.84;69.88;102584.75;5135352;27;20030;-61
2022/11/13 00:14:53;;;;;;;14.27;8.65;;;;;;;10.85;70.38;102583.91;5135435;27;20392;-61
2022/11/13 00:17:18;;;;;;;11.02;7.90;;;;;;;10.84;70.22;102576.81;5135337;27;20031;-61
2022/11/13 00:19:43;;;;;;;11.65;7.57;;;;;;;10.87;69.74;102584.84;5133801;27;20187;-61
2022/11/13 00:22:09;;;;;;;10.80;7.50;;;;;;;10.89;70.20;102583.19;5135401;27;20464;-60
2022/11/13 00:24:34;;;;;;;11.07;7.57;;;;;;;10.92;69.81;102571.78;5134608;27;20023;-62
2022/11/13 00:26:59;;;;;;;10.77;7.90;;;;;;;10.95;69.83;102571.91;5134856;27;20023;-62
2022/11/13 00:29:25;;;;;;;12.00;7.20;;;;;;;10.94;70.11;102564.84;5134951;27;20027;-61
2022/11/13 00:31:50;;;;;;;10.23;7.38;;;;;;;10.92;69.91;102563.84;5134978;27;20031;-62
2022/11/13 00:34:15;;;;;;;11.80;7.20;;;;;;;10.91;70.01;102562.06;5134936;27;20106;-61
2022/11/13 00:36:41;;;;;;;10.90;7.53;;;;;;;10.92;69.50;102566.50;5135052;27;20031;-62
2022/11/13 00:39:07;;;;;;;11.02;7.38;;;;;;;10.80;69.74;102560.78;5134774;27;20031;-61
2022/11/13 00:41:32;;;;;;;15.45;8.38;;;;;;;10.66;69.82;102547.03;5134738;27;20038;-61
2022/11/13 00:43:58;;;;;;;12.00;7.72;;;;;;;10.59;70.28;102561.78;5134832;27;20035;-61
2022/11/13 00:46:23;;;;;;;13.43;7.97;;;;;;;10.55;70.54;102549.28;5134731;27;20030;-62
2022/11/13 00:48:48;;;;;;;14.30;7.82;;;;;;;10.56;70.62;102551.06;5134653;27;20031;-62
2022/11/13 00:51:14;;;;;;;12.13;7.78;;;;;;;10.53;70.27;102548.31;5134781;27;20358;-62
2022/11/13 00:53:39;;;;;;;12.32;7.97;;;;;;;10.46;70.24;102551.56;5134846;27;20019;-62
2022/11/13 00:56:05;;;;;;;10.98;7.85;;;;;;;10.36;69.54;102544.09;5134560;27;20114;-61
2022/11/13 00:58:30;;;;;;;11.15;7.70;;;;;;;10.32;70.56;102544.84;5134361;27;20122;-61
2022/11/13 01:01:06;;;;;;;11.32;7.63;;;;;;;10.26;70.17;102550.78;5134595;27;20055;-62
2022/11/13 01:03:32;;;;;;;10.18;7.40;;;;;;;10.24;70.09;102548.09;5133358;27;20535;-62
2022/11/13 01:05:57;;;;;;;10.95;6.95;;;;;;;10.27;70.32;102550.84;5134477;27;20057;-61
2022/11/13 01:08:22;;;;;;;10.65;7.07;;;;;;;10.36;70.15;102545.00;5134405;27;20087;-61
2022/11/13 01:10:48;;;;;;;13.52;7.65;;;;;;;10.40;70.47;102546.94;5133330;27;20095;-61
2022/11/13 01:13:15;;;;;;;10.18;7.13;;;;;;;10.43;70.44;102539.13;5134236;27;20030;-61
2022/11/13 01:15:42;;;;;;;12.38;7.30;;;;;;;10.41;69.81;102534.66;5134373;27;20023;-62
2022/11/13 01:18:08;;;;;;;10.75;6.80;;;;;;;10.36;69.91;102530.91;5134170;27;20023;-61
2022/11/13 01:20:34;;;;;;;12.23;7.78;;;;;;;10.25;69.94;102536.69;5133898;27;20095;-62
2022/11/13 01:22:59;;;;;;;11.38;7.03;;;;;;;10.27;70.86;102537.63;5134147;27;20472;-62
2022/11/13 01:25:26;;;;;;;10.05;7.05;;;;;;;10.28;70.46;102541.19;5134183;27;20030;-61
2022/11/13 01:27:51;;;;;;;9.07;6.68;;;;;;;10.31;70.59;102536.00;5133975;27;20545;-62
2022/11/13 01:30:16;;;;;;;10.68;6.80;;;;;;;10.29;70.61;102540.34;5134186;27;20023;-62
2022/11/13 01:32:42;;;;;;;9.65;6.53;;;;;;;10.28;70.01;102538.56;5134044;27;20072;-62
2022/11/13 01:35:08;;;;;;;9.93;6.68;;;;;;;10.33;70.08;102530.81;5134086;27;20035;-61
2022/11/13 01:37:33;;;;;;;11.23;6.93;;;;;;;10.35;70.19;102529.09;5133936;27;20016;-61
2022/11/13 01:39:58;;;;;;;11.10;7.00;;;;;;;10.37;69.71;102523.06;5133992;27;20015;-61
2022/11/13 01:42:24;;;;;;;11.52;7.03;;;;;;;10.37;69.80;102528.34;5133447;27;20479;-62
2022/11/13 01:44:55;;;;;;;9.35;6.40;;;;;;;10.35;69.86;102519.44;5132711;28;20506;-62
2022/11/13 01:47:22;;;;;;;9.80;6.30;;;;;;;10.35;69.82;102515.91;5133977;27;20030;-62
2022/11/13 01:49:51;;;;;;;9.63;6.75;;;;;;;10.27;69.57;102521.78;5134005;27;20099;-62
2022/11/13 01:52:30;;;;;;;9.20;6.63;;;;;;;10.15;70.11;102523.94;5133952;28;20046;-61
2022/11/13 01:55:07;;;;;;;10.25;6.70;;;;;;;9.99;70.62;102518.88;5133930;27;20110;-62
2022/11/13 01:57:33;;;;;;;10.32;6.63;;;;;;;9.97;70.71;102513.50;5133579;27;20035;-61
2022/11/13 02:00:04;;;;;;;10.43;6.70;;;;;;;9.93;70.41;102505.41;5133735;27;20039;-61
2022/11/13 02:02:29;;;;;;;11.40;6.63;;;;;;;9.91;70.67;102499.19;5133771;27;20028;-61
2022/11/13 02:04:55;;;;;;;13.80;7.05;;;;;;;9.82;71.02;102494.44;5133774;27;20031;-61
2022/11/13 02:07:22;;;;;;;9.32;6.55;;;;;;;9.77;70.15;102501.28;5133726;27;20071;-62
2022/11/13 02:09:49;;;;;;;9.40;6.35;;;;;;;9.75;70.50;102495.00;5134043;27;20167;-61
2022/11/13 02:12:20;;;;;;;9.68;6.57;;;;;;;9.82;70.96;102506.72;5134206;27;20424;-61
2022/11/13 02:14:50;;;;;;;10.00;6.68;;;;;;;9.82;70.41;102498.81;5133792;28;20031;-61
2022/11/13 02:17:33;;;;;;;8.85;6.78;;;;;;;9.80;70.57;102490.81;5133734;27;20027;-62
2022/11/13 02:20:04;;;;;;;9.90;6.57;;;;;;;9.77;70.43;102482.78;5133540;27;20051;-61
2022/11/13 02:22:57;;;;;;;10.07;6.60;;;;;;;9.77;70.25;102494.25;5133547;27;20031;-61
2022/11/13 02:25:23;;;;;;;;;;;;;;;9.89;69.69;102477.06;5126741;27;20390;-60
2022/11/13 02:27:49;;;;;;;10.38;6.97;;;;;;;9.78;69.96;102479.31;5133500;28;19911;-61
2022/11/13 02:30:17;;;;;;;9.68;6.32;;;;;;;9.69;70.28;102479.84;5133581;27;20030;-61
2022/11/13 02:32:48;;;;;;;9.07;6.57;;;;;;;9.57;71.14;102475.78;5133574;27;20024;-61
2022/11/13 02:35:17;;;;;;;11.38;6.90;;;;;;;9.49;71.84;102473.72;5133527;27;20529;-61
2022/11/13 02:37:43;;;;;;;8.90;6.40;;;;;;;9.46;71.71;102470.06;5133458;27;20110;-61
2022/11/13 02:40:09;;;;;;;8.95;6.35;;;;;;;9.46;71.44;102471.00;5132506;28;20118;-61
2022/11/13 02:42:35;;;;;;;16.52;9.25;;;;;;;9.44;71.62;102474.38;5133514;27;20027;-61
2022/11/13 02:45:00;;;;;;;37.80;14.75;;;;;;;9.37;70.64;102474.97;5133479;27;20023;-61
2022/11/13 02:47:26;;;;;;;9.93;6.90;;;;;;;9.34;71.48;102472.22;5133369;27;20114;-62
2022/11/13 02:49:51;;;;;;;23.80;10.77;;;;;;;9.32;71.32;102468.59;5132156;28;20034;-62
2022/11/13 02:52:17;;;;;;;72.25;26.73;;;;;;;9.38;70.99;102468.84;5133350;27;20023;-61
2022/11/13 02:54:42;;;;;;;18.75;10.35;;;;;;;9.34;71.61;102473.13;5134844;27;20023;-61
2022/11/13 02:57:07;;;;;;;11.40;7.07;;;;;;;9.35;70.75;102468.72;5136897;27;20031;-61
2022/11/13 02:59:33;;;;;;;10.10;6.60;;;;;;;9.42;71.33;102468.13;5136933;27;20357;-61
2022/11/13 03:01:58;;;;;;;9.55;6.45;;;;;;;9.45;71.23;102469.16;5136970;27;20019;-62
2022/11/13 03:04:24;;;;;;;8.55;6.13;;;;;;;9.46;70.86;102471.00;5136575;27;20035;-61
2022/11/13 03:06:49;;;;;;;9.38;6.30;;;;;;;9.49;70.97;102476.38;5136731;27;20114;-61
2022/11/13 03:09:14;;;;;;;11.63;6.60;;;;;;;9.51;71.30;102468.53;5136736;27;20028;-61
2022/11/13 03:11:42;;;;;;;9.85;6.18;;;;;;;9.49;70.86;102454.38;5136732;27;20050;-61
2022/11/13 03:14:07;;;;;;;8.52;6.22;;;;;;;9.45;70.55;102455.06;5136772;27;20031;-61
2022/11/13 03:16:34;;;;;;;12.57;6.65;;;;;;;9.42;70.60;102447.03;5136568;27;20028;-62
2022/11/13 03:18:59;;;;;;;10.32;6.57;;;;;;;9.43;70.83;102446.22;5136716;27;20117;-61
2022/11/13 03:21:25;;;;;;;10.10;6.57;;;;;;;9.40;71.07;102446.97;5136275;27;20122;-61
2022/11/13 03:23:50;;;;;;;10.05;6.20;;;;;;;9.40;71.27;102446.06;5136683;27;20481;-62
2022/11/13 03:26:16;;;;;;;10.05;6.47;;;;;;;9.39;70.87;102444.28;5136373;27;20059;-61
2022/11/13 03:28:42;;;;;;;10.32;6.75;;;;;;;9.37;71.04;102441.56;5136262;27;20038;-61
2022/11/13 03:31:07;;;;;;;10.40;6.70;;;;;;;9.32;71.10;102444.84;5136246;27;20546;-61
2022/11/13 03:33:33;;;;;;;12.00;6.70;;;;;;;9.31;71.44;102440.44;5136178;27;20062;-61
2022/11/13 03:35:59;;;;;;;9.23;6.28;;;;;;;9.30;71.31;102439.53;5136120;27;20031;-61
2022/11/13 03:38:24;;;;;;;9.95;6.95;;;;;;;9.24;71.42;102426.97;5136176;27;20020;-61
2022/11/13 03:40:50;;;;;;;8.55;6.40;;;;;;;9.24;71.42;102433.97;5136067;27;20059;-61
2022/11/13 03:43:16;;;;;;;9.15;6.25;;;;;;;9.22;71.69;102428.66;5136142;27;20431;-61
2022/11/13 03:45:45;;;;;;;12.10;6.78;;;;;;;9.27;71.50;102426.19;5136353;27;20076;-61
2022/11/13 03:48:10;;;;;;;10.50;6.55;;;;;;;9.31;71.62;102429.88;5136010;27;20476;-61
2022/11/13 03:50:36;;;;;;;10.20;6.35;;;;;;;9.31;71.11;102429.88;5135916;27;20030;-61
2022/11/13 03:53:02;;;;;;;8.93;6.63;;;;;;;9.30;71.45;102430.72;5134883;27;20488;-62
2022/11/13 03:55:27;;;;;;;10.45;6.30;;;;;;;9.27;71.72;102424.47;5135896;27;20034;-61
2022/11/13 03:57:53;;;;;;;9.85;6.30;;;;;;;9.28;71.50;102431.53;5135562;27;20035;-61
2022/11/13 04:00:18;;;;;;;11.57;6.38;;;;;;;9.27;71.66;102419.19;5135750;27;20035;-61
2022/11/13 04:02:43;;;;;;;9.88;6.22;;;;;;;9.28;71.56;102420.09;5135586;27;20502;-61
2022/11/13 04:05:09;;;;;;;10.52;6.63;;;;;;;9.21;72.02;102408.41;5135305;27;20068;-61
2022/11/13 04:07:34;;;;;;;11.60;6.78;;;;;;;9.19;71.89;102409.16;5135545;27;20380;-62
2022/11/13 04:09:59;;;;;;;9.80;6.55;;;;;;;9.14;72.34;102401.06;5135604;27;20049;-61
2022/11/13 04:12:25;;;;;;;10.60;6.57;;;;;;;9.07;72.59;102396.34;5134142;27;20388;-61
2022/11/13 04:14:50;;;;;;;10.25;6.93;;;;;;;8.99;72.97;102400.41;5135268;27;20137;-62
2022/11/13 04:17:16;;;;;;;10.07;6.88;;;;;;;8.97;73.29;102404.72;5135377;27;20358;-61
2022/11/13 04:19:41;;;;;;;11.00;6.25;;;;;;;8.98;73.46;102396.88;5135134;27;20388;-61
2022/11/13 04:22:06;;;;;;;10.27;6.95;;;;;;;8.95;73.10;102398.47;5135277;27;20050;-61
2022/11/13 04:24:32;;;;;;;9.73;6.80;;;;;;;8.91;73.17;102391.31;5135293;27;20039;-61
2022/11/13 04:26:57;;;;;;;10.05;6.97;;;;;;;8.90;73.42;102398.28;5134986;27;20034;-61
2022/11/13 04:29:22;;;;;;;9.90;6.43;;;;;;;8.89;73.63;102385.94;5135117;27;20034;-61
2022/11/13 04:31:48;;;;;;;10.40;6.97;;;;;;;8.88;73.65;102383.25;5134966;27;20029;-61
2022/11/13 04:34:13;;;;;;;9.43;6.55;;;;;;;8.86;73.84;102385.81;5135111;27;20030;-61
2022/11/13 04:36:39;;;;;;;10.57;6.78;;;;;;;8.87;73.33;102378.81;5135045;27;20038;-61
2022/11/13 04:39:04;;;;;;;12.20;6.88;;;;;;;8.88;73.91;102373.59;5134947;27;20441;-61
2022/11/13 04:44:13;;;;;;;13.85;7.10;;;;;;;8.84;73.52;102371.66;5135296;27;20042;-61
2022/11/13 04:46:39;;;;;;;13.15;7.05;;;;;;;8.83;73.16;102369.88;5134842;27;20384;-61
2022/11/13 04:49:04;;;;;;;10.23;6.82;;;;;;;8.85;73.39;102375.19;5134897;27;20110;-61
2022/11/13 04:51:30;;;;;;;10.98;6.60;;;;;;;8.84;73.38;102371.66;5134758;27;20361;-62
2022/11/13 04:53:55;;;;;;;10.45;7.20;;;;;;;8.84;73.22;102374.31;5134922;27;20059;-61
2022/11/13 04:56:21;;;;;;;11.70;7.07;;;;;;;8.78;73.81;102355.63;5134392;27;20472;-61
2022/11/13 04:58:46;;;;;;;10.60;7.07;;;;;;;8.83;73.52;102369.88;5133031;27;20023;-62
2022/11/13 05:01:11;;;;;;;12.18;7.28;;;;;;;8.79;73.30;102367.94;5134553;27;20668;-61
2022/11/13 05:03:37;;;;;;;11.50;6.80;;;;;;;8.80;73.56;102369.75;5134486;27;20026;-62
2022/11/13 05:06:07;;;;;;;9.85;7.00;;;;;;;8.76;73.58;102362.53;5134416;27;20042;-61
2022/11/13 05:08:33;;;;;;;11.00;7.18;;;;;;;8.73;73.78;102367.66;5134676;27;20046;-61
2022/11/13 05:11:00;;;;;;;11.38;7.03;;;;;;;8.71;73.47;102364.09;5134532;27;20063;-62
2022/11/13 05:13:28;;;;;;;10.80;7.07;;;;;;;8.63;74.17;102371.66;5134469;27;20023;-61
2022/11/13 05:16:01;;;;;;;12.05;7.05;;;;;;;8.61;73.99;102368.06;5132417;27;20055;-61
2022/11/13 05:18:26;;;;;;;12.30;7.07;;;;;;;8.60;74.74;102365.34;5134208;27;20023;-61
2022/11/13 05:20:51;;;;;;;12.68;6.78;;;;;;;8.60;73.40;102367.97;5132597;27;20068;-61
2022/11/13 05:23:17;;;;;;;9.55;6.70;;;;;;;8.60;73.42;102365.34;5134263;27;20051;-61
2022/11/13 05:25:42;;;;;;;9.77;6.53;;;;;;;8.60;73.87;102365.34;5134462;27;20031;-61
2022/11/13 05:28:07;;;;;;;9.70;6.45;;;;;;;8.55;73.94;102357.25;5134051;27;20059;-61
2022/11/13 05:30:33;;;;;;;9.20;6.70;;;;;;;8.52;73.52;102349.19;5134149;27;20103;-61
2022/11/13 05:32:58;;;;;;;9.75;7.05;;;;;;;8.53;73.24;102345.75;5134089;27;20059;-61
2022/11/13 05:35:24;;;;;;;9.63;6.90;;;;;;;8.55;73.91;102338.81;5134051;27;20073;-61
2022/11/13 05:37:49;;;;;;;11.35;6.65;;;;;;;8.55;73.71;102341.44;5133899;27;20037;-61
2022/11/13 05:40:15;;;;;;;10.55;7.07;;;;;;;8.57;73.07;102336.25;5134177;27;20034;-61
2022/11/13 05:42:40;;;;;;;11.82;6.78;;;;;;;8.57;73.39;102334.50;5134322;27;20035;-61
2022/11/13 05:45:06;;;;;;;10.10;6.50;;;;;;;8.61;73.73;102332.88;5133945;27;20402;-61
2022/11/13 05:47:32;;;;;;;9.77;6.57;;;;;;;8.58;72.69;102331.03;5133854;27;20039;-62
2022/11/13 05:49:57;;;;;;;10.35;6.93;;;;;;;8.60;73.08;102342.53;5133901;27;20023;-62
2022/11/13 05:52:23;;;;;;;10.50;6.32;;;;;;;8.65;73.96;102337.44;5133929;28;20152;-61
2022/11/13 05:54:48;;;;;;;10.18;6.43;;;;;;;8.64;73.02;102344.47;5133879;28;20511;-61
2022/11/13 05:57:13;;;;;;;10.25;6.38;;;;;;;8.62;72.54;102342.63;5133638;28;20021;-62
2022/11/13 05:59:39;;;;;;;9.60;6.55;;;;;;;8.60;72.10;102344.25;5115375;28;20115;-61
2022/11/13 06:02:04;;;;;;;10.20;6.60;;;;;;;8.56;72.09;102337.97;5133841;28;20030;-62
2022/11/13 06:04:29;;;;;;;8.73;6.35;;;;;;;8.53;72.08;102344.03;5133697;28;20027;-62
2022/11/13 06:06:55;;;;;;;10.43;6.80;;;;;;;8.50;71.67;102345.63;5132656;28;20030;-61
2022/11/13 06:09:20;;;;;;;10.90;6.07;;;;;;;8.58;73.72;102335.41;5133736;28;20031;-62
2022/11/13 06:11:45;;;;;;;10.35;6.45;;;;;;;8.52;71.52;102334.31;5133719;27;20028;-61
2022/11/13 06:14:11;;;;;;;10.18;6.80;;;;;;;8.43;71.97;102333.00;5133748;28;20024;-61
2022/11/13 06:16:38;;;;;;;10.02;6.65;;;;;;;8.38;71.82;102331.91;5133548;28;20028;-61
2022/11/13 06:19:09;;;;;;;10.00;6.53;;;;;;;8.29;72.67;102332.38;5133497;27;20384;-61
2022/11/13 06:21:38;;;;;;;10.13;6.68;;;;;;;8.18;72.38;102333.63;5133408;27;20051;-61
2022/11/13 06:24:04;;;;;;;11.13;6.65;;;;;;;8.14;72.50;102327.34;5133488;27;20031;-61
2022/11/13 06:26:32;;;;;;;9.48;6.32;;;;;;;8.08;72.67;102329.69;5133688;27;20027;-61
2022/11/13 06:28:58;;;;;;;10.10;6.60;;;;;;;8.08;72.49;102324.41;5136759;27;20020;-61
2022/11/13 06:31:26;;;;;;;8.88;6.50;;;;;;;8.06;71.92;102319.94;5137591;27;20035;-61
2022/11/13 06:33:52;;;;;;;8.63;6.05;;;;;;;8.08;71.88;102320.88;5137554;27;20019;-61
2022/11/13 06:36:20;;;;;;;10.15;6.55;;;;;;;8.01;71.77;102323.25;5137408;27;20468;-61
2022/11/13 06:38:49;;;;;;;10.98;6.45;;;;;;;7.98;71.52;102319.59;5137127;27;20019;-61
2022/11/13 06:41:17;;;;;;;10.85;6.53;;;;;;;7.97;71.81;102325.69;5137276;27;20444;-61
2022/11/13 06:43:43;;;;;;;9.43;6.18;;;;;;;7.90;71.09;102323.59;5137310;27;20495;-61
2022/11/13 06:46:15;;;;;;;10.18;6.57;;;;;;;7.81;71.70;102323.19;5137122;27;20039;-61
2022/11/13 06:48:41;;;;;;;11.93;6.38;;;;;;;7.74;72.17;102322.00;5137428;27;20023;-61
2022/11/13 06:51:11;;;;;;;10.07;6.57;;;;;;;7.64;73.01;102312.78;5137117;27;20023;-61
2022/11/13 06:53:37;;;;;;;9.25;6.10;;;;;;;7.62;72.07;102318.78;5137396;27;20031;-62
2022/11/13 06:56:04;;;;;;;9.13;6.22;;;;;;;7.62;71.59;102321.41;5137081;27;20027;-61
2022/11/13 06:58:30;;;;;;;9.90;6.80;;;;;;;7.63;72.31;102307.47;5136752;27;20424;-61
2022/11/13 07:00:55;;;;;;;10.13;6.55;;;;;;;7.67;72.40;102312.03;5137151;27;20023;-61
2022/11/13 07:03:23;;;;;;;9.15;6.28;;;;;;;7.62;72.22;102309.16;5137066;27;20019;-61
2022/11/13 07:05:48;;;;;;;10.40;6.50;;;;;;;7.55;71.40;102314.09;5136842;27;20103;-61
2022/11/13 07:08:14;;;;;;;9.35;6.18;;;;;;;7.53;72.11;102312.28;5136786;27;20062;-61
2022/11/13 07:10:40;;;;;;;10.38;6.13;;;;;;;7.43;71.38;102310.06;5136666;27;20035;-61
2022/11/13 07:13:06;;;;;;;9.10;5.85;;;;;;;7.36;71.96;102305.31;5135663;27;20033;-61
2022/11/13 07:15:36;;;;;;;13.02;6.82;;;;;;;7.33;71.73;102315.72;5136873;27;20027;-61
2022/11/13 07:18:03;;;;;;;10.32;6.07;;;;;;;7.27;71.79;102304.91;5136524;27;20083;-61
2022/11/13 07:20:29;;;;;;;9.75;6.68;;;;;;;7.24;73.47;102295.16;5136956;27;20030;-61
2022/11/13 07:22:56;;;;;;;10.70;6.55;;;;;;;7.22;72.48;102306.41;5136405;27;20074;-61
2022/11/13 07:25:21;;;;;;;12.93;6.65;;;;;;;7.20;72.24;102301.09;5136687;27;20023;-61
2022/11/13 07:27:47;;;;;;;14.65;6.95;;;;;;;7.19;72.35;102312.41;5136371;27;20023;-60
2022/11/13 07:30:12;;;;;;;8.90;6.20;;;;;;;7.19;73.18;102301.88;5136397;27;20030;-61
2022/11/13 07:32:38;;;;;;;9.25;6.55;;;;;;;7.21;73.02;102309.88;5135052;27;20380;-61
2022/11/13 07:35:03;;;;;;;12.63;6.53;;;;;;;7.24;73.58;102308.28;5136268;27;20023;-61
2022/11/13 07:37:29;;;;;;;9.45;6.43;;;;;;;7.29;73.07;102303.25;5136316;27;20067;-61
2022/11/13 07:39:54;;;;;;;10.10;6.53;;;;;;;7.36;72.42;102309.69;5135385;27;20110;-61
2022/11/13 07:42:19;;;;;;;10.13;7.45;;;;;;;7.42;72.95;102303.00;5136462;27;20027;-61
2022/11/13 07:44:45;;;;;;;9.73;6.95;;;;;;;7.56;74.36;102300.13;5135992;27;20112;-61
2022/11/13 07:47:10;;;;;;;10.02;6.47;;;;;;;7.75;72.81;102300.09;5135927;27;20023;-61
2022/11/13 07:49:36;;;;;;;20.75;11.77;;;;;;;7.82;72.73;102296.94;5135834;27;20037;-61
2022/11/13 07:52:01;;;;;;;14.90;8.57;;;;;;;7.90;72.08;102297.28;5135858;27;20384;-61
2022/11/13 07:54:26;;;;;;;12.70;8.05;;;;;;;8.02;72.76;102300.47;5135726;27;20051;-61
2022/11/13 07:56:52;;;;;;;10.75;6.75;;;;;;;8.18;72.64;102299.38;5135843;27;20108;-61
2022/11/13 07:59:17;;;;;;;27.02;12.45;;;;;;;8.43;73.17;102285.59;5135509;27;20381;-61
2022/11/13 08:01:42;;;;;;;12.60;7.85;;;;;;;8.79;72.35;102294.16;5134642;27;20112;-61
2022/11/13 08:04:08;;;;;;;20.25;12.73;;;;;;;9.12;72.17;102286.72;5135604;27;20480;-61
2022/11/13 08:06:35;;;;;;;18.08;10.18;;;;;;;9.50;71.23;102289.91;5135512;27;20023;-61
2022/11/13 08:09:01;;;;;;;13.75;8.60;;;;;;;9.91;70.06;102290.59;5135501;27;20019;-61
2022/11/13 08:11:26;;;;;;;12.75;8.13;;;;;;;10.35;69.12;102286.91;5135320;27;20026;-62
2022/11/13 08:13:52;;;;;;;14.57;9.15;;;;;;;10.81;68.39;102284.94;5135623;27;20201;-61
2022/11/13 08:16:17;;;;;;;11.60;8.45;;;;;;;11.29;66.48;102291.78;5134144;27;20027;-61
2022/11/13 08:18:42;;;;;;;13.80;9.05;;;;;;;11.76;66.31;102281.72;5135121;27;20122;-61
2022/11/13 08:21:08;;;;;;;13.35;8.68;;;;;;;12.13;64.35;102281.91;5135304;27;20476;-61
2022/11/13 08:23:33;;;;;;;13.07;8.60;;;;;;;12.63;62.82;102277.00;5135193;27;20054;-62
2022/11/13 08:26:03;;;;;;;12.63;7.53;;;;;;;13.05;62.12;102282.47;5135176;27;20551;-62
2022/11/13 08:28:29;;;;;;;13.75;8.05;;;;;;;13.65;59.85;102276.75;5135033;27;20050;-61
2022/11/13 08:30:54;;;;;;;12.93;8.15;;;;;;;14.17;58.78;102269.81;5135205;27;20503;-61
2022/11/13 08:33:19;;;;;;;11.43;7.85;;;;;;;14.61;57.56;102272.44;5135000;27;20033;-61
2022/11/13 08:35:56;;;;;;;14.38;9.25;;;;;;;14.97;57.47;102271.22;5135320;27;20465;-61
2022/11/13 08:38:22;;;;;;;15.45;10.20;;;;;;;15.30;54.57;102269.94;5133727;27;20015;-61
2022/11/13 08:40:47;;;;;;;14.52;9.95;;;;;;;15.54;54.18;102264.94;5134999;27;20023;-62
2022/11/13 08:43:13;;;;;;;12.05;8.57;;;;;;;15.73;52.82;102268.78;5134733;27;20037;-61
2022/11/13 08:45:38;;;;;;;15.05;9.20;;;;;;;16.01;52.58;102265.53;5134861;27;20031;-61
2022/11/13 08:48:05;;;;;;;10.63;7.00;;;;;;;16.33;50.57;102259.66;5134689;27;20062;-61
2022/11/13 08:50:32;;;;;;;8.93;6.57;;;;;;;16.83;49.72;102258.31;5134723;27;20019;-62
2022/11/13 08:52:59;;;;;;;9.02;6.40;;;;;;;17.45;48.07;102249.81;5134854;27;20015;-61
2022/11/13 08:55:25;;;;;;;11.27;6.50;;;;;;;17.85;46.78;102247.34;5134765;27;20019;-62
2022/11/13 08:57:51;;;;;;;8.02;5.97;;;;;;;18.06;46.42;102250.06;5134471;27;20030;-61
2022/11/13 09:00:17;;;;;;;7.93;6.00;;;;;;;18.12;45.59;102243.84;5134640;27;20034;-61
2022/11/13 09:02:42;;;;;;;8.98;6.45;;;;;;;18.25;44.86;102243.88;5134687;27;20507;-61
2022/11/13 09:05:08;;;;;;;10.30;6.75;;;;;;;18.34;45.55;102245.66;5133488;27;20106;-61
2022/11/13 09:07:33;;;;;;;7.90;6.10;;;;;;;18.57;43.75;102258.16;5134721;27;20028;-62
2022/11/13 09:09:58;;;;;;;8.65;6.07;;;;;;;18.93;44.63;102251.94;5134515;27;20555;-61
2022/11/13 09:12:24;;;;;;;10.52;6.78;;;;;;;19.00;44.23;102245.66;5134456;27;20034;-62
2022/11/13 09:14:49;;;;;;;8.25;6.05;;;;;;;19.07;42.92;102246.56;5134319;27;20027;-61
2022/11/13 09:17:15;;;;;;;10.15;6.85;;;;;;;19.13;43.67;102242.06;5134345;27;20023;-61
2022/11/13 09:19:42;;;;;;;8.23;6.15;;;;;;;19.23;42.12;102234.91;5134213;27;20043;-61
2022/11/13 09:22:08;;;;;;;8.65;6.25;;;;;;;19.30;41.69;102235.78;5133998;27;20116;-62
2022/11/13 09:24:33;;;;;;;9.75;5.43;;;;;;;19.14;40.48;102237.59;5134294;27;20092;-63
2022/11/13 09:26:59;;;;;;;8.32;6.05;;;;;;;19.19;42.07;102234.03;5134200;27;20118;-63
2022/11/13 09:29:27;;;;;;;9.00;5.50;;;;;;;19.35;42.46;102226.81;5134225;27;20498;-61
2022/11/13 09:31:53;;;;;;;12.68;6.55;;;;;;;19.48;41.52;102227.66;5134096;27;20114;-61
2022/11/13 09:34:18;;;;;;;10.13;6.30;;;;;;;19.56;42.57;102231.19;5134000;27;20490;-61
2022/11/13 09:36:44;;;;;;;7.75;6.20;;;;;;;19.69;41.59;102229.38;5134075;27;20065;-62
2022/11/13 09:39:09;;;;;;;9.82;6.25;;;;;;;19.92;41.60;102230.16;5133915;27;20102;-61
2022/11/13 09:41:48;;;;;;;9.48;6.70;;;;;;;19.91;42.53;102230.16;5132757;28;20392;-63
2022/11/13 09:44:33;;;;;;;10.70;7.45;;;;;;;20.11;42.16;102227.34;5134170;27;20020;-61
2022/11/13 09:47:13;;;;;;;9.18;6.43;;;;;;;20.22;41.30;102231.75;5134360;27;20031;-61
2022/11/13 09:49:46;;;;;;;10.50;6.18;;;;;;;20.47;40.53;102232.47;5133867;27;20076;-62
2022/11/13 09:52:14;;;;;;;;;;;;;;;20.44;43.48;102229.81;5134612;27;20072;-62
2022/11/13 09:54:39;;;;;;;6.85;5.30;;;;;;;20.56;38.37;102230.66;5133844;27;19911;-61
2022/11/13 09:57:13;;;;;;;7.22;5.45;;;;;;;20.48;38.10;102230.72;5133603;27;20024;-62
2022/11/13 09:59:58;;;;;;;6.78;5.20;;;;;;;20.47;38.98;102226.19;5133771;28;20528;-61
2022/11/13 10:02:44;;;;;;;6.97;5.53;;;;;;;20.58;39.17;102223.44;5134720;27;20019;-61
2022/11/13 10:05:12;;;;;;;7.32;5.70;;;;;;;20.55;38.21;102213.63;5138330;27;20030;-62
2022/11/13 10:07:53;;;;;;;7.30;5.85;;;;;;;20.99;39.47;102217.69;5137887;27;20031;-62
2022/11/13 10:10:34;;;;;;;6.82;5.65;;;;;;;21.30;38.41;102215.53;5138156;27;20023;-61
2022/11/13 10:13:00;;;;;;;9.00;5.80;;;;;;;21.33;37.34;102220.94;5137862;27;20027;-61
2022/11/13 10:15:26;;;;;;;7.25;5.82;;;;;;;21.02;36.98;102220.31;5137810;27;20074;-62
2022/11/13 10:18:13;;;;;;;7.70;5.70;;;;;;;21.09;37.25;102223.84;5137596;27;20023;-62
2022/11/13 10:20:49;;;;;;;7.50;5.40;;;;;;;21.40;37.96;102208.28;5137462;27;20389;-63
2022/11/13 10:23:19;;;;;;;6.57;5.60;;;;;;;21.67;36.68;102202.56;5137400;27;20047;-62
2022/11/13 10:25:44;;;;;;;6.00;5.10;;;;;;;22.04;35.26;102207.38;5137936;27;20083;-62
2022/11/13 10:28:18;;;;;;;9.13;5.53;;;;;;;22.16;35.41;102207.25;5137318;27;20031;-62
2022/11/13 10:30:45;;;;;;;9.32;5.80;;;;;;;22.25;34.95;102203.50;5137392;27;20024;-62
2022/11/13 10:33:15;;;;;;;7.75;5.72;;;;;;;22.57;34.94;102202.97;5137410;27;20031;-63
2022/11/13 10:35:48;;;;;;;7.70;5.57;;;;;;;22.81;34.21;102204.31;5137401;27;20035;-63
2022/11/13 10:38:43;;;;;;;6.55;5.18;;;;;;;22.88;35.45;102197.03;5137649;27;20029;-62
2022/11/13 10:41:15;;;;;;;11.73;5.50;;;;;;;23.04;33.96;102193.16;5137650;27;20029;-62
2022/11/13 10:44:00;;;;;;;7.13;5.57;;;;;;;23.11;34.82;102189.41;5135964;27;20138;-62
2022/11/13 10:46:28;;;;;;;7.63;5.30;;;;;;;23.07;33.21;102189.50;5137302;27;20089;-62
2022/11/13 10:48:55;;;;;;;7.13;5.13;;;;;;;23.46;33.40;102185.97;5137066;27;20414;-62
2022/11/13 10:51:24;;;;;;;6.82;5.22;;;;;;;23.60;32.91;102182.09;5137129;27;20476;-62
2022/11/13 10:53:51;;;;;;;8.10;5.80;;;;;;;23.76;32.43;102171.88;5137146;27;20034;-63
2022/11/13 10:56:31;;;;;;;7.22;5.15;;;;;;;23.91;32.58;102172.41;5137029;27;20027;-63
2022/11/13 10:59:12;;;;;;;9.60;5.57;;;;;;;24.05;33.58;102160.38;5136835;27;20106;-62
2022/11/13 11:01:40;;;;;;;8.75;5.68;;;;;;;24.10;31.45;102162.03;5137302;27;20031;-62
2022/11/13 11:04:11;;;;;;;6.70;5.20;;;;;;;24.18;31.29;102149.22;5136770;27;20023;-62
2022/11/13 11:06:39;;;;;;;8.13;5.50;;;;;;;24.35;31.18;102140.69;5136937;27;20096;-62
2022/11/13 11:09:13;;;;;;;6.78;5.32;;;;;;;24.22;30.91;102140.13;5136830;27;20387;-62
2022/11/13 11:14:29;;;;;;;6.60;5.00;;;;;;;24.18;31.63;102145.66;5135753;27;20100;-62
2022/11/13 11:16:55;;;;;;;6.78;4.60;;;;;;;24.59;30.20;102138.31;5136809;27;20034;-63
2022/11/13 11:19:26;;;;;;;6.65;4.65;;;;;;;24.88;29.93;102133.00;5136534;27;20039;-63
2022/11/13 11:22:01;;;;;;;6.25;4.72;;;;;;;24.73;29.78;102133.41;5136571;27;20424;-63
2022/11/13 11:24:35;;;;;;;10.68;7.38;;;;;;;24.70;30.59;102138.91;5136638;27;20027;-63
2022/11/13 11:27:10;;;;;;;7.05;5.15;;;;;;;24.90;29.88;102133.81;5136504;27;20033;-62
2022/11/13 11:29:38;;;;;;;6.22;4.95;;;;;;;24.59;29.55;102136.50;5136524;27;20487;-62